Gas Hills, Wyoming
Current Conditions -  °F | °C
As of 2:53 PM on Friday 24 Oct 2014 (Local Time) from KLND Reporting Station
Clear Clear  
Wind Chill: 74°   Ceiling: Unl
Heat Index: 74°   Visibility: 10mi
Dew Point: 22°   Wind: 3mph
Humidity: 14%   Direction: NA
Pressure: 30.06"   Gusts: NA
Location:  43.1005°N, 108.934°W
Report Text: KLND 242053Z AUTO VRB03KT 10SM CLR 23/M06 A3006 RMK AO2 SLP123 T02331056 56017 TSNO
Loading
Personal Weather Stations






























Interactive Weather Map
Tropical Storm Tracking
New forecast layout! Learn more

10-Day Weather Forecast

Advertisements
Track Severe Weather on mobile